createdAt,value
2023-04-25T00:01:16.169Z,8.97
2023-04-25T00:03:39.383Z,8.97
2023-04-25T00:06:04.162Z,9.13
2023-04-25T00:08:26.039Z,9.47
2023-04-25T00:10:47.530Z,8.93
2023-04-25T00:13:09.231Z,9.17
2023-04-25T00:15:31.755Z,8.73
2023-04-25T00:17:54.119Z,9.83
2023-04-25T00:20:16.211Z,9.87
2023-04-25T00:22:38.479Z,9.47
2023-04-25T00:25:01.304Z,10.30
2023-04-25T00:27:22.812Z,10.17
2023-04-25T00:29:44.328Z,10.23
2023-04-25T00:32:05.953Z,9.37
2023-04-25T00:34:27.496Z,9.97
2023-04-25T00:36:49.066Z,9.43
2023-04-25T00:39:10.563Z,10.00
2023-04-25T00:41:32.087Z,10.63
2023-04-25T00:43:55.711Z,10.67
2023-04-25T00:46:17.212Z,10.53
2023-04-25T00:48:38.656Z,11.43
2023-04-25T00:51:00.982Z,10.30
2023-04-25T00:53:23.452Z,11.23
2023-04-25T00:55:44.947Z,10.67
2023-04-25T00:58:06.554Z,11.07
2023-04-25T01:00:28.213Z,10.63
2023-04-25T01:02:50.896Z,10.33
2023-04-25T01:05:13.238Z,11.23
2023-04-25T01:07:34.875Z,10.57
2023-04-25T01:09:56.379Z,10.10
2023-04-25T01:12:17.982Z,9.60
2023-04-25T01:14:39.541Z,9.97
2023-04-25T01:17:01.111Z,8.77
2023-04-25T01:19:22.728Z,9.23
2023-04-25T01:21:44.253Z,8.30
2023-04-25T01:24:06.827Z,8.23
2023-04-25T01:26:28.488Z,8.40
2023-04-25T01:28:50.350Z,9.03
2023-04-25T01:31:12.893Z,8.50
2023-04-25T01:33:34.343Z,7.63
2023-04-25T01:35:55.792Z,8.23
2023-04-25T01:38:17.297Z,7.57
2023-04-25T01:40:41.009Z,8.00
2023-04-25T01:43:02.689Z,9.10
2023-04-25T01:45:24.199Z,8.13
2023-04-25T01:47:50.104Z,6.40
2023-04-25T01:50:12.370Z,6.37
2023-04-25T01:52:33.867Z,5.93
2023-04-25T01:54:57.844Z,5.20
2023-04-25T01:57:19.303Z,5.50
2023-04-25T01:59:41.770Z,5.00
2023-04-25T02:02:04.816Z,4.70
2023-04-25T02:04:26.348Z,6.00
2023-04-25T02:06:47.841Z,5.60
2023-04-25T02:09:09.298Z,5.00
2023-04-25T02:11:30.724Z,5.37
2023-04-25T02:13:52.385Z,5.93
2023-04-25T02:16:14.797Z,5.00
2023-04-25T02:18:38.428Z,5.20
2023-04-25T02:21:00.836Z,4.60
2023-04-25T02:23:22.324Z,4.90
2023-04-25T02:25:43.851Z,4.80
2023-04-25T02:28:05.425Z,5.17
2023-04-25T02:30:26.851Z,5.23
2023-04-25T02:32:48.346Z,5.00
2023-04-25T02:35:10.462Z,4.80
2023-04-25T02:37:32.469Z,5.37
2023-04-25T02:39:53.946Z,5.43
2023-04-25T02:42:15.549Z,4.60
2023-04-25T02:44:37.002Z,4.70
2023-04-25T02:46:58.521Z,4.53
2023-04-25T02:49:19.999Z,4.37
2023-04-25T02:51:41.462Z,5.10
2023-04-25T02:54:03.035Z,4.50
2023-04-25T02:56:27.062Z,4.57
2023-04-25T02:58:48.552Z,4.20
2023-04-25T03:01:10.077Z,4.20
2023-04-25T03:03:31.621Z,4.00
2023-04-25T03:05:53.706Z,3.47
2023-04-25T03:08:15.399Z,3.93
2023-04-25T03:10:36.820Z,3.57
2023-04-25T03:12:58.255Z,3.63
2023-04-25T03:15:19.811Z,3.07
2023-04-25T03:17:41.717Z,3.63
2023-04-25T03:20:05.044Z,3.50
2023-04-25T03:22:26.517Z,3.53
2023-04-25T03:24:48.269Z,4.07
2023-04-25T03:27:09.758Z,4.00
2023-04-25T03:29:31.178Z,4.17
2023-04-25T03:31:52.732Z,4.30
2023-04-25T03:34:15.701Z,4.57
2023-04-25T03:36:37.257Z,4.17
2023-04-25T03:38:58.778Z,5.07
2023-04-25T03:41:20.306Z,4.37
2023-04-25T03:43:41.737Z,4.20
2023-04-25T03:46:03.257Z,5.00
2023-04-25T03:48:26.993Z,5.00
2023-04-25T03:50:48.597Z,4.90
2023-04-25T03:53:10.038Z,4.97
2023-04-25T03:55:31.974Z,5.47
2023-04-25T03:57:53.418Z,4.97
2023-04-25T04:00:15.288Z,4.70
2023-04-25T04:02:38.642Z,5.27
2023-04-25T04:05:00.483Z,4.73
2023-04-25T04:07:22.093Z,5.03
2023-04-25T04:09:43.527Z,4.80
2023-04-25T04:12:05.190Z,5.10
2023-04-25T04:14:26.614Z,4.33
2023-04-25T04:16:48.108Z,4.60
2023-04-25T04:19:09.585Z,4.67
2023-04-25T04:21:31.031Z,4.80
2023-04-25T04:23:52.590Z,4.50
2023-04-25T04:26:14.047Z,5.27
2023-04-25T04:28:36.752Z,6.03
2023-04-25T04:30:58.647Z,7.00
2023-04-25T04:33:20.692Z,7.33
2023-04-25T04:35:42.750Z,5.90
2023-04-25T04:38:04.532Z,6.43
2023-04-25T04:40:26.586Z,5.93
2023-04-25T04:42:48.385Z,6.90
2023-04-25T04:45:11.319Z,7.33
2023-04-25T04:47:33.649Z,6.57
2023-04-25T04:49:55.162Z,9.03
2023-04-25T04:52:16.616Z,12.97
2023-04-25T04:54:38.222Z,9.30
2023-04-25T04:56:59.708Z,7.07
2023-04-25T04:59:21.151Z,5.40
2023-04-25T05:01:42.666Z,5.50
2023-04-25T05:04:04.917Z,5.27
2023-04-25T05:06:27.671Z,5.67
2023-04-25T05:08:50.121Z,4.53
2023-04-25T05:11:12.182Z,5.33
2023-04-25T05:13:33.627Z,5.10
2023-04-25T05:15:55.050Z,5.00
2023-04-25T05:18:16.578Z,5.37
2023-04-25T05:20:38.045Z,5.10
2023-04-25T05:22:59.512Z,5.00
2023-04-25T05:25:21.003Z,4.67
2023-04-25T05:27:42.495Z,5.13
2023-04-25T05:30:04.349Z,5.17
2023-04-25T05:32:26.282Z,5.30
2023-04-25T05:34:47.899Z,5.23
2023-04-25T05:37:09.405Z,5.77
2023-04-25T05:39:30.880Z,5.43
2023-04-25T05:41:52.353Z,5.50
2023-04-25T05:44:13.804Z,5.30
2023-04-25T05:46:35.400Z,5.50
2023-04-25T05:48:56.854Z,5.47
2023-04-25T05:51:19.489Z,4.73
2023-04-25T05:53:41.272Z,5.10
2023-04-25T05:56:03.193Z,5.10
2023-04-25T05:58:24.767Z,4.50
2023-04-25T06:00:47.278Z,4.20
2023-04-25T06:03:10.897Z,5.33
2023-04-25T06:05:32.686Z,5.20
2023-04-25T06:07:54.216Z,4.93
2023-04-25T06:10:16.070Z,5.20
2023-04-25T06:12:37.547Z,5.47
2023-04-25T06:14:59.082Z,5.10
2023-04-25T06:17:20.586Z,4.77
2023-04-25T06:19:42.103Z,4.73
2023-04-25T06:22:03.631Z,4.80
2023-04-25T06:24:25.087Z,5.40
2023-04-25T06:26:46.598Z,4.93
2023-04-25T06:29:08.031Z,4.80
2023-04-25T06:31:34.028Z,5.07
2023-04-25T06:33:55.837Z,5.00
2023-04-25T06:36:17.307Z,4.60
2023-04-25T06:38:38.751Z,4.70
2023-04-25T06:41:00.322Z,5.43
2023-04-25T06:43:21.828Z,4.50
2023-04-25T06:45:44.094Z,4.30
2023-04-25T06:48:06.357Z,4.13
2023-04-25T06:50:27.953Z,4.23
2023-04-25T06:52:49.393Z,4.10
2023-04-25T06:55:10.951Z,4.17
2023-04-25T06:57:32.517Z,4.43
2023-04-25T06:59:53.989Z,4.70
2023-04-25T07:02:15.534Z,4.80
2023-04-25T07:04:37.598Z,4.30
2023-04-25T07:06:59.362Z,4.50
2023-04-25T07:09:20.873Z,4.23
2023-04-25T07:11:42.291Z,4.87
2023-04-25T07:14:04.113Z,4.60
2023-04-25T07:16:25.578Z,4.97
2023-04-25T07:18:47.056Z,5.30
2023-04-25T07:21:08.596Z,5.07
2023-04-25T07:23:30.091Z,5.87
2023-04-25T07:25:51.743Z,5.80
2023-04-25T07:28:13.286Z,5.03
2023-04-25T07:30:35.913Z,5.33
2023-04-25T07:32:57.349Z,5.03
2023-04-25T07:35:18.815Z,5.43
2023-04-25T07:37:40.361Z,4.90
2023-04-25T07:40:05.390Z,5.43
2023-04-25T07:42:26.813Z,5.23
2023-04-25T07:44:48.361Z,4.87
2023-04-25T07:47:10.724Z,5.20
2023-04-25T07:49:32.230Z,5.67
2023-04-25T07:51:53.661Z,5.67
2023-04-25T07:54:16.694Z,5.10
2023-04-25T07:56:49.035Z,5.17
2023-04-25T07:59:13.310Z,4.50
2023-04-25T08:01:35.310Z,4.90
2023-04-25T08:03:57.070Z,5.17
2023-04-25T08:06:19.008Z,4.63
2023-04-25T08:08:40.925Z,5.00
2023-04-25T08:11:02.374Z,4.40
2023-04-25T08:13:23.805Z,5.60
2023-04-25T08:15:45.313Z,4.53
2023-04-25T08:18:06.934Z,4.27
2023-04-25T08:20:28.663Z,4.03
2023-04-25T08:22:50.085Z,4.17
2023-04-25T08:25:11.560Z,4.57
2023-04-25T08:27:33.060Z,4.33
2023-04-25T08:29:54.561Z,3.77
2023-04-25T08:32:16.048Z,4.20
2023-04-25T08:34:39.139Z,4.27
2023-04-25T08:37:00.815Z,4.10
2023-04-25T08:39:22.467Z,4.40
2023-04-25T08:41:45.229Z,3.93
2023-04-25T08:44:10.958Z,4.13
2023-04-25T08:46:33.293Z,4.10
2023-04-25T08:49:03.665Z,4.17
2023-04-25T08:51:29.081Z,4.23
2023-04-25T08:53:54.407Z,4.00
2023-04-25T08:56:21.373Z,3.50
2023-04-25T08:58:43.158Z,3.50
2023-04-25T09:01:04.894Z,3.90
2023-04-25T09:03:26.800Z,4.23
2023-04-25T09:05:48.362Z,3.83
2023-04-25T09:08:09.966Z,4.03
2023-04-25T09:13:07.874Z,4.27
2023-04-25T09:15:29.436Z,5.20
2023-04-25T09:18:00.461Z,5.30
2023-04-25T09:20:22.131Z,3.87
2023-04-25T09:22:46.895Z,4.67
2023-04-25T09:25:12.942Z,4.70
2023-04-25T09:27:34.507Z,5.17
2023-04-25T09:30:03.025Z,4.83
2023-04-25T09:32:25.708Z,4.10
2023-04-25T09:34:52.645Z,3.97
2023-04-25T09:37:21.773Z,3.70
2023-04-25T09:39:47.222Z,4.20
2023-04-25T09:42:10.384Z,3.37
2023-04-25T09:44:32.305Z,3.50
2023-04-25T09:46:54.674Z,2.80
2023-04-25T09:49:16.235Z,2.63
2023-04-25T09:51:37.656Z,3.20
2023-04-25T09:53:59.157Z,3.10
2023-04-25T09:56:20.958Z,2.90
2023-04-25T09:58:42.931Z,2.45
2023-04-25T10:01:06.888Z,3.08
2023-04-25T10:03:31.931Z,2.95
2023-04-25T10:05:55.186Z,3.08
2023-04-25T10:08:17.760Z,3.00
2023-04-25T10:10:41.254Z,2.60
2023-04-25T10:13:07.331Z,2.73
2023-04-25T10:15:29.320Z,3.13
2023-04-25T10:17:51.834Z,3.00
2023-04-25T10:20:14.253Z,2.95
2023-04-25T10:22:38.846Z,2.78
2023-04-25T10:25:01.380Z,2.77
2023-04-25T10:27:23.323Z,4.90
2023-04-25T10:29:45.178Z,3.50
2023-04-25T10:32:06.656Z,3.97
2023-04-25T10:34:48.009Z,3.23
2023-04-25T10:37:11.741Z,4.93
2023-04-25T10:39:33.672Z,2.90
2023-04-25T10:41:58.284Z,3.10
2023-04-25T10:44:19.914Z,3.23
2023-04-25T10:46:41.583Z,3.03
2023-04-25T10:49:04.125Z,2.70
2023-04-25T10:51:50.871Z,3.50
2023-04-25T10:54:19.002Z,3.00
2023-04-25T10:56:45.239Z,3.20
2023-04-25T10:59:12.033Z,3.27
2023-04-25T11:01:39.790Z,3.57
2023-04-25T11:04:01.494Z,2.97
2023-04-25T11:06:44.480Z,3.33
2023-04-25T11:09:13.611Z,2.97
2023-04-25T11:11:37.673Z,3.00
2023-04-25T11:13:59.330Z,3.10
2023-04-25T11:16:27.474Z,2.73
2023-04-25T11:18:49.766Z,3.63
2023-04-25T11:21:12.537Z,2.80
2023-04-25T11:23:34.165Z,3.27
2023-04-25T11:25:55.700Z,2.60
2023-04-25T11:28:24.185Z,3.07
2023-04-25T11:30:53.293Z,3.10
2023-04-25T11:33:15.191Z,2.90
2023-04-25T11:35:36.695Z,2.60
2023-04-25T11:37:58.137Z,2.20
2023-04-25T11:40:19.722Z,2.80
2023-04-25T11:42:48.189Z,2.90
2023-04-25T11:45:10.679Z,2.50
2023-04-25T11:47:33.749Z,2.72
2023-04-25T11:49:55.225Z,2.95
2023-04-25T11:52:16.761Z,2.60
2023-04-25T11:54:39.007Z,2.53
2023-04-25T11:57:00.497Z,2.97
2023-04-25T11:59:26.318Z,2.88
2023-04-25T12:01:51.358Z,2.47
2023-04-25T12:04:13.023Z,2.72
2023-04-25T12:06:40.466Z,2.83
2023-04-25T12:09:06.058Z,2.97
2023-04-25T12:11:27.537Z,2.45
2023-04-25T12:13:54.290Z,2.70
2023-04-25T12:16:16.004Z,2.35
2023-04-25T12:18:37.533Z,2.80
2023-04-25T12:20:59.211Z,2.90
2023-04-25T12:23:29.874Z,2.53
2023-04-25T12:25:51.421Z,2.88
2023-04-25T12:28:32.790Z,3.03
2023-04-25T12:31:04.494Z,2.73
2023-04-25T12:33:27.986Z,3.10
2023-04-25T12:35:49.543Z,3.00
2023-04-25T12:38:10.977Z,2.40
2023-04-25T12:40:32.554Z,2.75
2023-04-25T12:42:53.974Z,3.05
2023-04-25T12:45:15.403Z,2.60
2023-04-25T12:47:36.963Z,2.50
2023-04-25T12:49:58.458Z,2.50
2023-04-25T12:52:19.975Z,3.63
2023-04-25T12:54:41.584Z,2.30
2023-04-25T12:57:04.018Z,2.15
2023-04-25T12:59:25.619Z,5.45
2023-04-25T13:01:47.147Z,2.20
2023-04-25T13:04:08.747Z,2.20
2023-04-25T13:06:33.252Z,2.10
2023-04-25T13:08:55.378Z,2.20
2023-04-25T13:11:16.950Z,2.67
2023-04-25T13:13:38.700Z,2.70
2023-04-25T13:16:00.280Z,2.88
2023-04-25T13:18:21.932Z,2.53
2023-04-25T13:20:43.399Z,2.55
2023-04-25T13:23:04.848Z,2.30
2023-04-25T13:25:26.883Z,2.55
2023-04-25T13:27:48.625Z,2.90
2023-04-25T13:30:10.364Z,2.33
2023-04-25T13:32:31.845Z,2.22
2023-04-25T13:34:54.352Z,2.30
2023-04-25T13:37:16.643Z,2.28
2023-04-25T13:39:38.097Z,2.60
2023-04-25T13:41:59.537Z,2.60
2023-04-25T13:44:21.053Z,2.33
2023-04-25T13:46:46.844Z,2.22
2023-04-25T13:49:12.657Z,2.08
2023-04-25T13:51:35.648Z,2.03
2023-04-25T13:53:57.792Z,2.47
2023-04-25T13:56:20.642Z,2.00
2023-04-25T13:58:42.121Z,2.10
2023-04-25T14:01:04.491Z,2.00
2023-04-25T14:03:27.057Z,2.17
2023-04-25T14:05:49.095Z,2.55
2023-04-25T14:08:10.959Z,2.33
2023-04-25T14:10:32.503Z,2.03
2023-04-25T14:12:53.921Z,2.30
2023-04-25T14:15:16.136Z,2.60
2023-04-25T14:17:37.702Z,2.90
2023-04-25T14:19:59.156Z,2.40
2023-04-25T14:22:20.703Z,2.33
2023-04-25T14:24:42.535Z,2.37
2023-04-25T14:27:05.117Z,2.13
2023-04-25T14:29:26.781Z,2.17
2023-04-25T14:31:48.511Z,2.20
2023-04-25T14:34:10.094Z,2.13
2023-04-25T14:36:32.207Z,2.40
2023-04-25T14:38:53.785Z,2.40
2023-04-25T14:41:15.220Z,1.93
2023-04-25T14:43:37.546Z,2.50
2023-04-25T14:45:59.002Z,2.23
2023-04-25T14:48:20.874Z,2.43
2023-04-25T14:50:42.419Z,1.97
2023-04-25T14:53:03.855Z,2.47
2023-04-25T14:55:25.686Z,2.00
2023-04-25T14:57:47.118Z,2.23
2023-04-25T15:00:10.503Z,2.50
2023-04-25T15:02:32.137Z,2.20
2023-04-25T15:04:54.713Z,2.30
2023-04-25T15:07:18.260Z,2.13
2023-04-25T15:09:40.094Z,2.43
2023-04-25T15:12:01.654Z,2.90
2023-04-25T15:14:23.208Z,2.00
2023-04-25T15:16:44.655Z,2.00
2023-04-25T15:19:06.458Z,2.00
2023-04-25T15:21:28.070Z,2.10
2023-04-25T15:23:49.791Z,1.70
2023-04-25T15:26:12.093Z,2.30
2023-04-25T15:28:34.966Z,2.30
2023-04-25T15:30:56.544Z,2.30
2023-04-25T15:33:18.069Z,1.90
2023-04-25T15:35:39.594Z,2.10
2023-04-25T15:38:01.157Z,1.93
2023-04-25T15:40:22.856Z,1.77
2023-04-25T15:42:51.544Z,1.90
2023-04-25T15:45:14.687Z,2.00
2023-04-25T15:47:38.034Z,1.97
2023-04-25T15:49:59.908Z,1.77
2023-04-25T15:52:22.037Z,2.07
2023-04-25T15:54:43.478Z,1.97
2023-04-25T15:57:05.484Z,1.90
2023-04-25T15:59:27.529Z,2.37
2023-04-25T16:01:49.482Z,2.07
2023-04-25T16:04:11.379Z,2.00
2023-04-25T16:06:33.181Z,1.80
2023-04-25T16:08:55.147Z,1.90
2023-04-25T16:11:16.652Z,1.70
2023-04-25T16:13:38.243Z,1.97
2023-04-25T16:15:59.754Z,1.77
2023-04-25T16:18:21.395Z,1.63
2023-04-25T16:20:43.055Z,2.23
2023-04-25T16:23:04.534Z,1.70
2023-04-25T16:25:26.149Z,1.93
2023-04-25T16:27:47.951Z,1.80
2023-04-25T16:30:11.433Z,1.63
2023-04-25T16:32:32.864Z,1.97
2023-04-25T16:34:54.335Z,1.97
2023-04-25T16:37:15.938Z,1.90
2023-04-25T16:39:37.413Z,3.63
2023-04-25T16:41:58.838Z,2.30
2023-04-25T16:44:20.322Z,1.80
2023-04-25T16:46:41.890Z,1.90
2023-04-25T16:49:03.460Z,2.00
2023-04-25T16:51:24.936Z,1.83
2023-04-25T16:53:48.444Z,2.00
2023-04-25T16:56:10.059Z,2.00
2023-04-25T16:58:31.556Z,2.10
2023-04-25T17:00:53.804Z,1.80
2023-04-25T17:03:15.603Z,2.17
2023-04-25T17:05:37.314Z,2.00
2023-04-25T17:07:59.826Z,2.00
2023-04-25T17:10:21.862Z,1.70
2023-04-25T17:12:43.427Z,1.77
2023-04-25T17:15:05.472Z,1.77
2023-04-25T17:17:27.380Z,2.13
2023-04-25T17:19:48.885Z,2.50
2023-04-25T17:22:10.401Z,2.77
2023-04-25T17:24:31.891Z,2.50
2023-04-25T17:26:53.334Z,1.80
2023-04-25T17:29:15.461Z,1.80
2023-04-25T17:31:37.325Z,1.70
2023-04-25T17:33:58.955Z,1.90
2023-04-25T17:36:21.466Z,1.83
2023-04-25T17:38:42.890Z,1.70
2023-04-25T17:41:05.399Z,1.80
2023-04-25T17:43:27.721Z,1.50
2023-04-25T17:45:49.296Z,1.60
2023-04-25T17:48:10.748Z,1.80
2023-04-25T17:50:32.203Z,1.43
2023-04-25T17:52:53.661Z,1.70
2023-04-25T17:55:15.147Z,1.53
2023-04-25T17:57:36.772Z,1.57
2023-04-25T17:59:58.235Z,1.70
2023-04-25T18:02:19.931Z,1.73
2023-04-25T18:04:41.603Z,2.20
2023-04-25T18:07:03.088Z,3.13
2023-04-25T18:09:25.158Z,2.13
2023-04-25T18:11:47.247Z,1.70
2023-04-25T18:14:14.262Z,1.60
2023-04-25T18:16:35.783Z,1.80
2023-04-25T18:19:05.244Z,2.07
2023-04-25T18:21:27.533Z,2.20
2023-04-25T18:23:49.037Z,2.10
2023-04-25T18:26:10.568Z,2.17
2023-04-25T18:28:34.178Z,1.70
2023-04-25T18:30:56.695Z,2.47
2023-04-25T18:33:18.278Z,1.67
2023-04-25T18:35:45.128Z,2.00
2023-04-25T18:38:15.201Z,2.63
2023-04-25T18:40:50.409Z,2.93
2023-04-25T18:43:18.040Z,2.47
2023-04-25T18:45:39.548Z,2.27
2023-04-25T18:48:02.549Z,2.20
2023-04-25T18:50:26.392Z,1.97
2023-04-25T18:52:47.923Z,1.63
2023-04-25T18:55:09.925Z,1.80
2023-04-25T18:57:31.348Z,1.80
2023-04-25T18:59:52.829Z,1.83
2023-04-25T19:02:16.181Z,1.70
2023-04-25T19:04:37.948Z,1.80
2023-04-25T19:06:59.691Z,1.87
2023-04-25T19:09:21.271Z,2.00
2023-04-25T19:11:42.711Z,1.97
2023-04-25T19:14:04.203Z,1.97
2023-04-25T19:16:27.439Z,2.00
2023-04-25T19:18:51.819Z,2.33
2023-04-25T19:21:13.596Z,2.10
2023-04-25T19:23:35.580Z,3.00
2023-04-25T19:25:57.135Z,2.50
2023-04-25T19:28:18.739Z,1.90
2023-04-25T19:30:41.258Z,2.17
2023-04-25T19:33:03.536Z,1.77
2023-04-25T19:35:25.457Z,1.73
2023-04-25T19:37:47.288Z,1.77
2023-04-25T19:40:09.236Z,1.93
2023-04-25T19:42:30.800Z,2.40
2023-04-25T19:44:52.845Z,2.90
2023-04-25T19:47:14.311Z,3.30
2023-04-25T19:49:36.194Z,2.87
2023-04-25T19:51:57.644Z,4.20
2023-04-25T19:54:19.481Z,3.30
2023-04-25T19:56:42.019Z,5.50
2023-04-25T19:59:03.483Z,2.57
2023-04-25T20:01:25.022Z,3.30
2023-04-25T20:03:48.263Z,4.30
2023-04-25T20:06:11.265Z,6.57
2023-04-25T20:08:32.719Z,4.33
2023-04-25T20:10:54.234Z,4.77
2023-04-25T20:13:16.204Z,3.50
2023-04-25T20:15:38.218Z,3.03
2023-04-25T20:17:59.811Z,3.60
2023-04-25T20:20:22.200Z,2.93
2023-04-25T20:22:43.685Z,2.80
2023-04-25T20:25:06.634Z,2.23
2023-04-25T20:27:28.058Z,2.13
2023-04-25T20:29:49.492Z,2.20
2023-04-25T20:32:11.225Z,2.10
2023-04-25T20:34:32.759Z,2.10
2023-04-25T20:36:54.544Z,2.10
2023-04-25T20:39:16.005Z,2.17
2023-04-25T20:41:37.863Z,1.87
2023-04-25T20:44:00.421Z,1.67
2023-04-25T20:46:22.308Z,1.80
2023-04-25T20:48:43.861Z,1.90
2023-04-25T20:51:07.309Z,1.80
2023-04-25T20:53:28.769Z,1.37
2023-04-25T20:55:50.206Z,1.40
2023-04-25T20:58:11.674Z,1.90
2023-04-25T21:00:34.852Z,1.57
2023-04-25T21:02:56.867Z,1.80
2023-04-25T21:05:24.713Z,1.90
2023-04-25T21:07:46.854Z,1.50
2023-04-25T21:10:08.704Z,1.67
2023-04-25T21:12:30.352Z,1.93
2023-04-25T21:14:51.841Z,1.53
2023-04-25T21:17:13.472Z,1.70
2023-04-25T21:19:35.135Z,1.80
2023-04-25T21:21:56.858Z,1.57
2023-04-25T21:24:18.333Z,1.77
2023-04-25T21:26:40.078Z,1.90
2023-04-25T21:29:01.571Z,1.67
2023-04-25T21:31:23.082Z,2.17
2023-04-25T21:33:44.513Z,1.90
2023-04-25T21:36:06.254Z,1.50
2023-04-25T21:38:27.704Z,1.97
2023-04-25T21:40:49.933Z,3.87
2023-04-25T21:43:11.390Z,1.60
2023-04-25T21:45:33.453Z,1.63
2023-04-25T21:47:55.869Z,1.37
2023-04-25T21:50:18.018Z,1.57
2023-04-25T21:52:39.474Z,1.73
2023-04-25T21:55:00.978Z,1.70
2023-04-25T21:57:22.469Z,1.67
2023-04-25T21:59:43.958Z,1.80
2023-04-25T22:02:05.752Z,2.13
2023-04-25T22:04:27.767Z,1.77
2023-04-25T22:06:49.470Z,1.90
2023-04-25T22:09:10.950Z,2.10
2023-04-25T22:11:32.521Z,2.00
2023-04-25T22:13:54.538Z,1.73
2023-04-25T22:16:17.062Z,1.73
2023-04-25T22:18:40.436Z,1.70
2023-04-25T22:21:02.480Z,1.50
2023-04-25T22:23:23.985Z,2.00
2023-04-25T22:25:46.292Z,2.13
2023-04-25T22:28:07.756Z,2.30
2023-04-25T22:30:31.134Z,1.87
2023-04-25T22:32:52.947Z,2.07
2023-04-25T22:35:14.527Z,2.27
2023-04-25T22:37:36.150Z,2.70
2023-04-25T22:39:58.005Z,2.10
2023-04-25T22:42:19.501Z,1.87
2023-04-25T22:44:41.021Z,2.00
2023-04-25T22:47:02.586Z,2.00
2023-04-25T22:49:24.702Z,2.17
2023-04-25T22:51:46.168Z,2.03
2023-04-25T22:54:07.686Z,1.90
2023-04-25T22:56:30.237Z,1.80
2023-04-25T22:58:51.998Z,1.50
2023-04-25T23:01:13.697Z,1.97
2023-04-25T23:03:35.454Z,2.00
2023-04-25T23:05:56.964Z,1.87
2023-04-25T23:08:18.786Z,1.70
2023-04-25T23:10:40.854Z,2.10
2023-04-25T23:13:03.911Z,1.50
2023-04-25T23:15:30.897Z,2.00
2023-04-25T23:17:52.479Z,2.07
2023-04-25T23:20:14.041Z,2.17
2023-04-25T23:22:36.148Z,1.70
2023-04-25T23:24:57.704Z,1.83
2023-04-25T23:27:19.173Z,1.80
2023-04-25T23:29:40.653Z,1.70
2023-04-25T23:32:02.159Z,1.90
2023-04-25T23:34:23.616Z,2.10
2023-04-25T23:36:45.311Z,1.80
2023-04-25T23:39:09.420Z,1.97
2023-04-25T23:41:31.022Z,1.77
2023-04-25T23:43:52.913Z,1.30
2023-04-25T23:46:14.739Z,2.10
2023-04-25T23:48:36.397Z,2.10
2023-04-25T23:50:57.879Z,1.40
2023-04-25T23:53:19.285Z,2.10
2023-04-25T23:55:40.970Z,2.03
2023-04-25T23:58:02.443Z,2.33
